createdAt,value
2019-05-11T00:00:25.307Z,2.188
2019-05-11T00:03:15.664Z,1.587
2019-05-11T00:06:15.526Z,2.475
2019-05-11T00:09:15.770Z,0.675
2019-05-11T00:12:15.045Z,1.450
2019-05-11T00:15:16.299Z,0.737
2019-05-11T00:18:15.858Z,1.387
2019-05-11T00:21:15.553Z,0.875
2019-05-11T00:24:14.910Z,3.513
2019-05-11T00:27:15.213Z,1.637
2019-05-11T00:30:15.294Z,3.025
2019-05-11T00:33:15.379Z,2.275
2019-05-11T00:36:15.342Z,2.412
2019-05-11T00:39:15.771Z,2.800
2019-05-11T00:42:15.645Z,1.812
2019-05-11T00:45:15.732Z,1.938
2019-05-11T00:48:15.847Z,0.887
2019-05-11T00:51:15.828Z,1.525
2019-05-11T00:54:15.827Z,1.362
2019-05-11T00:57:15.670Z,2.613
2019-05-11T01:00:15.585Z,1.438
2019-05-11T01:03:15.628Z,0.525
2019-05-11T01:06:15.600Z,0.938
2019-05-11T01:09:15.807Z,1.562
2019-05-11T01:12:15.817Z,0.550
2019-05-11T01:15:15.620Z,0.962
2019-05-11T01:18:15.845Z,3.250
2019-05-11T01:21:15.657Z,1.312
2019-05-11T01:24:15.688Z,0.912
2019-05-11T01:27:15.709Z,0.538
2019-05-11T01:30:15.500Z,2.562
2019-05-11T01:33:15.777Z,1.688
2019-05-11T01:36:15.650Z,1.562
2019-05-11T01:39:15.870Z,0.900
2019-05-11T01:42:15.626Z,0.738
2019-05-11T01:45:15.593Z,2.013
2019-05-11T01:48:15.705Z,1.175
2019-05-11T01:51:15.456Z,1.688
2019-05-11T01:54:15.808Z,2.213
2019-05-11T01:57:15.642Z,4.838
2019-05-11T02:00:15.080Z,2.338
2019-05-11T02:03:15.249Z,2.788
2019-05-11T02:06:15.589Z,4.475
2019-05-11T02:09:14.935Z,2.638
2019-05-11T02:12:15.445Z,2.662
2019-05-11T02:15:15.592Z,1.600
2019-05-11T02:18:15.807Z,1.238
2019-05-11T02:21:15.831Z,1.475
2019-05-11T02:24:15.696Z,1.288
2019-05-11T02:27:15.694Z,1.150
2019-05-11T02:30:15.773Z,2.538
2019-05-11T02:33:15.744Z,2.250
2019-05-11T02:36:14.851Z,1.538
2019-05-11T02:39:15.459Z,2.163
2019-05-11T02:42:15.342Z,2.213
2019-05-11T02:45:15.472Z,2.875
2019-05-11T02:48:15.576Z,2.275
2019-05-11T02:51:15.849Z,4.125
2019-05-11T02:54:15.607Z,3.188
2019-05-11T02:57:15.640Z,1.037
2019-05-11T03:00:15.884Z,1.838
2019-05-11T03:03:15.096Z,3.138
2019-05-11T03:06:15.581Z,2.662
2019-05-11T03:09:15.942Z,3.750
2019-05-11T03:12:15.046Z,1.913
2019-05-11T03:15:15.598Z,3.162
2019-05-11T03:18:15.162Z,1.850
2019-05-11T03:21:15.924Z,3.100
2019-05-11T03:24:14.929Z,3.688
2019-05-11T03:27:15.564Z,2.975
2019-05-11T03:30:15.137Z,3.662
2019-05-11T03:33:15.738Z,2.088
2019-05-11T03:36:14.999Z,4.050
2019-05-11T03:39:15.515Z,2.462
2019-05-11T03:42:15.786Z,3.237
2019-05-11T03:45:15.020Z,5.525
2019-05-11T03:48:15.746Z,4.000
2019-05-11T03:51:15.474Z,3.650
2019-05-11T03:54:15.773Z,3.675
2019-05-11T03:57:15.819Z,6.113
2019-05-11T04:00:15.041Z,3.600
2019-05-11T04:03:15.733Z,2.987
2019-05-11T04:06:15.059Z,5.350
2019-05-11T04:09:15.775Z,3.525
2019-05-11T04:12:33.469Z,6.438
2019-05-11T04:15:15.604Z,4.463
2019-05-11T04:18:15.030Z,5.600
2019-05-11T04:21:15.786Z,4.638
2019-05-11T04:24:15.027Z,5.463
2019-05-11T04:27:19.350Z,6.050
2019-05-11T04:30:15.401Z,6.638
2019-05-11T04:33:14.989Z,4.625
2019-05-11T04:36:15.853Z,6.725
2019-05-11T04:39:15.827Z,6.950
2019-05-11T04:42:15.837Z,8.287
2019-05-11T04:45:15.857Z,11.300
2019-05-11T04:48:15.116Z,7.988
2019-05-11T04:51:15.690Z,6.250
2019-05-11T04:54:14.911Z,6.250
2019-05-11T04:57:15.880Z,6.325
2019-05-11T05:00:15.939Z,4.250
2019-05-11T05:03:15.469Z,5.262
2019-05-11T05:06:22.258Z,3.900
2019-05-11T05:09:15.571Z,3.700
2019-05-11T05:12:15.690Z,4.763
2019-05-11T05:15:15.320Z,4.200
2019-05-11T05:18:14.979Z,4.562
2019-05-11T05:21:15.684Z,4.312
2019-05-11T05:24:15.089Z,3.287
2019-05-11T05:27:15.850Z,2.925
2019-05-11T05:30:14.941Z,2.562
2019-05-11T05:33:15.864Z,4.575
2019-05-11T05:36:15.324Z,3.312
2019-05-11T05:39:15.860Z,6.662
2019-05-11T05:42:15.662Z,4.200
2019-05-11T05:45:15.049Z,4.312
2019-05-11T05:48:15.884Z,3.800
2019-05-11T05:51:15.185Z,3.150
2019-05-11T05:54:15.143Z,2.712
2019-05-11T05:57:16.030Z,4.662
2019-05-11T06:00:14.987Z,3.675
2019-05-11T06:03:15.773Z,2.550
2019-05-11T06:06:14.973Z,3.125
2019-05-11T06:09:16.001Z,3.050
2019-05-11T06:12:15.213Z,3.975
2019-05-11T06:15:15.794Z,2.900
2019-05-11T06:18:15.647Z,2.612
2019-05-11T06:21:15.018Z,1.675
2019-05-11T06:24:15.922Z,1.350
2019-05-11T06:27:15.082Z,3.000
2019-05-11T06:30:14.892Z,4.100
2019-05-11T06:33:15.090Z,4.938
2019-05-11T06:36:15.682Z,3.550
2019-05-11T06:39:15.106Z,5.213
2019-05-11T06:42:15.939Z,3.400
2019-05-11T06:45:15.079Z,3.350
2019-05-11T06:48:14.946Z,4.438
2019-05-11T06:51:15.884Z,4.987
2019-05-11T06:54:15.266Z,4.000
2019-05-11T06:57:14.947Z,3.513
2019-05-11T07:00:15.753Z,3.762
2019-05-11T07:03:15.317Z,8.712
2019-05-11T07:06:15.178Z,6.350
2019-05-11T07:09:15.440Z,3.975
2019-05-11T07:12:15.216Z,4.275
2019-05-11T07:15:15.083Z,1.888
2019-05-11T07:18:15.883Z,5.350
2019-05-11T07:21:15.812Z,1.988
2019-05-11T07:24:15.096Z,2.975
2019-05-11T07:27:14.815Z,3.100
2019-05-11T07:30:15.725Z,3.900
2019-05-11T07:33:15.409Z,3.050
2019-05-11T07:36:14.973Z,4.650
2019-05-11T07:39:15.752Z,4.225
2019-05-11T07:42:17.873Z,1.525
2019-05-11T07:45:17.899Z,2.638
2019-05-11T07:48:15.691Z,2.875
2019-05-11T07:51:14.990Z,5.925
2019-05-11T07:54:15.804Z,2.425
2019-05-11T07:57:15.330Z,4.250
2019-05-11T08:00:15.538Z,3.862
2019-05-11T08:03:17.958Z,3.438
2019-05-11T08:06:18.037Z,2.288
2019-05-11T08:09:15.024Z,3.163
2019-05-11T08:12:15.795Z,1.438
2019-05-11T08:15:18.136Z,3.938
2019-05-11T08:18:15.388Z,1.725
2019-05-11T08:21:17.867Z,4.562
2019-05-11T08:24:17.944Z,2.288
2019-05-11T08:27:15.577Z,1.212
2019-05-11T08:30:15.089Z,1.150
2019-05-11T08:33:17.367Z,0.925
2019-05-11T08:36:15.018Z,0.787
2019-05-11T08:39:18.146Z,1.962
2019-05-11T08:42:15.056Z,1.475
2019-05-11T08:45:21.239Z,1.275
2019-05-11T08:48:14.973Z,1.087
2019-05-11T08:51:15.842Z,1.725
2019-05-11T08:54:14.961Z,2.413
2019-05-11T08:57:17.848Z,0.637
2019-05-11T09:00:17.810Z,1.388
2019-05-11T09:03:17.888Z,1.562
2019-05-11T09:06:17.903Z,0.900
2019-05-11T09:09:17.917Z,1.788
2019-05-11T09:12:18.172Z,0.425
2019-05-11T09:15:29.955Z,0.650
2019-05-11T09:18:15.827Z,0.900
2019-05-11T09:21:15.061Z,0.938
2019-05-11T09:24:15.182Z,1.388
2019-05-11T09:27:14.950Z,1.350
2019-05-11T09:30:15.756Z,0.838
2019-05-11T09:33:17.825Z,1.150
2019-05-11T09:36:17.975Z,1.000
2019-05-11T09:39:14.973Z,1.587
2019-05-11T09:42:17.788Z,0.800
2019-05-11T09:45:15.622Z,0.850
2019-05-11T09:48:15.313Z,0.550
2019-05-11T09:51:18.179Z,0.512
2019-05-11T09:54:18.229Z,0.800
2019-05-11T09:57:15.196Z,0.512
2019-05-11T10:00:17.884Z,0.900
2019-05-11T10:03:15.115Z,0.550
2019-05-11T10:06:15.704Z,0.237
2019-05-11T10:09:14.984Z,0.238
2019-05-11T10:12:18.050Z,0.375
2019-05-11T10:15:15.854Z,0.425
2019-05-11T10:18:15.374Z,0.375
2019-05-11T10:21:15.124Z,1.025
2019-05-11T10:24:17.792Z,0.412
2019-05-11T10:27:15.498Z,0.237
2019-05-11T10:30:14.955Z,0.175
2019-05-11T10:33:15.711Z,0.675
2019-05-11T10:36:15.993Z,0.200
2019-05-11T10:39:15.841Z,1.463
2019-05-11T10:42:15.285Z,0.175
2019-05-11T10:45:17.845Z,0.200
2019-05-11T10:48:17.717Z,0.188
2019-05-11T10:51:15.248Z,0.762
2019-05-11T10:54:15.716Z,0.275
2019-05-11T10:57:15.219Z,0.200
2019-05-11T11:00:17.813Z,0.488
2019-05-11T11:03:17.891Z,0.237
2019-05-11T11:06:15.738Z,0.287
2019-05-11T11:09:15.038Z,0.200
2019-05-11T11:12:15.093Z,0.175
2019-05-11T11:15:18.209Z,0.725
2019-05-11T11:18:15.170Z,0.250
2019-05-11T11:21:21.769Z,0.200
2019-05-11T11:24:18.039Z,2.413
2019-05-11T11:27:15.041Z,0.163
2019-05-11T11:30:17.968Z,0.163
2019-05-11T11:33:15.722Z,0.700
2019-05-11T11:36:15.148Z,0.312
2019-05-11T11:39:15.860Z,0.163
2019-05-11T11:42:15.121Z,0.188
2019-05-11T11:45:15.280Z,0.275
2019-05-11T11:48:15.061Z,0.287
2019-05-11T11:51:15.831Z,0.188
2019-05-11T11:54:17.950Z,0.275
2019-05-11T11:57:15.206Z,0.388
2019-05-11T12:00:18.104Z,0.250
2019-05-11T12:03:18.380Z,0.963
2019-05-11T12:06:15.218Z,0.188
2019-05-11T12:09:15.092Z,0.512
2019-05-11T12:12:15.247Z,0.450
2019-05-11T12:15:14.894Z,0.250
2019-05-11T12:18:14.992Z,0.188
2019-05-11T12:21:18.290Z,0.438
2019-05-11T12:24:15.143Z,0.500
2019-05-11T12:27:14.887Z,0.188
2019-05-11T12:30:14.865Z,0.550
2019-05-11T12:33:15.582Z,0.425
2019-05-11T12:36:15.130Z,0.375
2019-05-11T12:39:15.864Z,0.188
2019-05-11T12:42:17.830Z,1.888
2019-05-11T12:45:15.239Z,0.287
2019-05-11T12:48:15.187Z,0.537
2019-05-11T12:51:15.063Z,0.487
2019-05-11T12:54:15.019Z,0.275
2019-05-11T12:57:15.298Z,0.675
2019-05-11T13:00:15.041Z,0.575
2019-05-11T13:03:15.083Z,0.688
2019-05-11T13:06:15.800Z,1.525
2019-05-11T13:09:15.381Z,0.663
2019-05-11T13:12:15.511Z,0.787
2019-05-11T13:15:15.037Z,0.525
2019-05-11T13:18:14.908Z,0.325
2019-05-11T13:21:18.079Z,1.000
2019-05-11T13:24:14.894Z,0.325
2019-05-11T13:27:17.959Z,0.662
2019-05-11T13:30:15.676Z,1.337
2019-05-11T13:33:15.358Z,0.650
2019-05-11T13:36:15.048Z,1.188
2019-05-11T13:39:17.922Z,1.012
2019-05-11T13:42:15.688Z,1.562
2019-05-11T13:45:15.059Z,0.375
2019-05-11T13:48:17.517Z,0.875
2019-05-11T13:51:15.462Z,1.700
2019-05-11T13:54:15.000Z,1.113
2019-05-11T13:57:15.369Z,0.725
2019-05-11T14:00:14.987Z,0.750
2019-05-11T14:03:14.932Z,0.363
2019-05-11T14:06:17.760Z,1.425
2019-05-11T14:09:15.413Z,0.887
2019-05-11T14:12:18.042Z,0.963
2019-05-11T14:15:15.793Z,0.525
2019-05-11T14:18:17.638Z,0.925
2019-05-11T14:21:15.691Z,0.625
2019-05-11T14:24:15.264Z,0.988
2019-05-11T14:27:14.891Z,0.300
2019-05-11T14:30:15.246Z,0.550
2019-05-11T14:33:17.870Z,4.125
2019-05-11T14:36:15.156Z,0.775
2019-05-11T14:39:14.962Z,1.575
2019-05-11T14:42:15.061Z,0.887
2019-05-11T14:45:14.985Z,0.688
2019-05-11T14:48:25.876Z,0.712
2019-05-11T14:51:18.101Z,0.350
2019-05-11T14:54:15.221Z,0.838
2019-05-11T14:57:15.745Z,0.438
2019-05-11T15:00:15.569Z,0.587
2019-05-11T15:03:15.175Z,0.425
2019-05-11T15:06:15.686Z,0.250
2019-05-11T15:09:15.258Z,0.325
2019-05-11T15:12:17.971Z,0.462
2019-05-11T15:15:15.895Z,1.050
2019-05-11T15:18:17.595Z,0.213
2019-05-11T15:21:15.766Z,1.425
2019-05-11T15:24:18.326Z,0.175
2019-05-11T15:27:15.258Z,0.200
2019-05-11T15:33:15.717Z,0.425
2019-05-11T15:36:15.545Z,0.450
2019-05-11T15:39:15.039Z,0.525
2019-05-11T15:42:17.554Z,0.700
2019-05-11T15:45:18.432Z,2.325
2019-05-11T15:48:15.376Z,0.800
2019-05-11T15:51:15.444Z,0.688
2019-05-11T15:54:15.550Z,1.262
2019-05-11T15:57:17.806Z,2.650
2019-05-11T16:00:15.660Z,1.237
2019-05-11T16:03:15.627Z,1.212
2019-05-11T16:06:18.328Z,1.613
2019-05-11T16:09:15.488Z,1.750
2019-05-11T16:12:15.172Z,0.550
2019-05-11T16:15:15.735Z,0.600
2019-05-11T16:18:15.826Z,1.100
2019-05-11T16:21:15.276Z,1.250
2019-05-11T16:24:15.113Z,1.062
2019-05-11T16:27:15.046Z,0.788
2019-05-11T16:30:20.869Z,0.600
2019-05-11T16:33:15.191Z,0.475
2019-05-11T16:36:17.855Z,0.463
2019-05-11T16:39:15.762Z,1.813
2019-05-11T16:42:15.462Z,2.237
2019-05-11T16:45:15.222Z,1.938
2019-05-11T16:48:15.226Z,1.675
2019-05-11T16:51:15.182Z,1.075
2019-05-11T16:54:15.295Z,0.825
2019-05-11T16:57:17.688Z,2.475
2019-05-11T17:00:15.641Z,1.288
2019-05-11T17:03:15.382Z,1.750
2019-05-11T17:06:15.114Z,1.737
2019-05-11T17:09:17.859Z,1.188
2019-05-11T17:12:17.930Z,5.037
2019-05-11T17:15:18.202Z,6.712
2019-05-11T17:18:15.378Z,7.175
2019-05-11T17:21:14.954Z,11.163
2019-05-11T17:24:15.311Z,5.650
2019-05-11T17:27:15.555Z,5.600
2019-05-11T17:30:15.600Z,6.938
2019-05-11T17:33:17.438Z,6.575
2019-05-11T17:36:15.508Z,9.438
2019-05-11T17:39:15.904Z,6.600
2019-05-11T17:42:15.345Z,7.562
2019-05-11T17:45:15.169Z,8.875
2019-05-11T17:48:17.630Z,6.188
2019-05-11T17:51:21.253Z,7.650
2019-05-11T17:54:17.802Z,5.400
2019-05-11T17:57:15.714Z,10.300
2019-05-11T18:00:15.443Z,8.637
2019-05-11T18:03:15.697Z,8.487
2019-05-11T18:06:15.179Z,5.013
2019-05-11T18:09:15.197Z,2.825
2019-05-11T18:12:17.210Z,10.350
2019-05-11T18:15:15.487Z,4.775
2019-05-11T18:18:15.226Z,3.513
2019-05-11T18:21:15.335Z,3.362
2019-05-11T18:24:15.065Z,2.163
2019-05-11T18:27:15.176Z,2.625
2019-05-11T18:30:15.160Z,1.413
2019-05-11T18:33:15.328Z,2.362
2019-05-11T18:36:15.149Z,2.175
2019-05-11T18:39:15.227Z,2.125
2019-05-11T18:42:15.305Z,1.825
2019-05-11T18:45:15.304Z,2.688
2019-05-11T18:48:15.730Z,1.325
2019-05-11T18:51:15.035Z,1.100
2019-05-11T18:54:15.115Z,1.050
2019-05-11T18:57:15.297Z,1.175
2019-05-11T19:00:15.241Z,0.925
2019-05-11T19:03:15.860Z,0.950
2019-05-11T19:06:15.393Z,1.512
2019-05-11T19:09:17.844Z,1.025
2019-05-11T19:12:18.493Z,1.613
2019-05-11T19:15:15.531Z,1.700
2019-05-11T19:18:14.859Z,4.525
2019-05-11T19:21:17.841Z,2.325
2019-05-11T19:24:15.563Z,2.825
2019-05-11T19:27:15.193Z,4.362
2019-05-11T19:30:17.969Z,2.663
2019-05-11T19:33:15.825Z,2.138
2019-05-11T19:36:15.243Z,3.950
2019-05-11T19:39:15.475Z,1.413
2019-05-11T19:42:17.869Z,2.300
2019-05-11T19:45:15.390Z,3.462
2019-05-11T19:48:15.838Z,3.525
2019-05-11T19:51:15.427Z,2.150
2019-05-11T19:54:15.322Z,1.863
2019-05-11T19:57:18.006Z,0.688
2019-05-11T20:00:15.479Z,2.312
2019-05-11T20:03:18.049Z,1.500
2019-05-11T20:06:15.791Z,3.763
2019-05-11T20:09:15.376Z,2.312
2019-05-11T20:12:17.849Z,1.850
2019-05-11T20:15:15.805Z,1.475
2019-05-11T20:18:15.416Z,5.188
2019-05-11T20:21:19.570Z,1.325
2019-05-11T20:24:15.497Z,2.175
2019-05-11T20:27:14.999Z,3.487
2019-05-11T20:30:18.065Z,3.913
2019-05-11T20:33:15.582Z,4.650
2019-05-11T20:36:17.700Z,2.587
2019-05-11T20:39:15.125Z,2.487
2019-05-11T20:42:17.958Z,1.337
2019-05-11T20:45:15.059Z,2.487
2019-05-11T20:48:15.260Z,2.325
2019-05-11T20:51:15.147Z,3.175
2019-05-11T20:54:17.544Z,2.175
2019-05-11T20:57:15.245Z,3.237
2019-05-11T21:00:15.366Z,3.500
2019-05-11T21:03:15.523Z,3.262
2019-05-11T21:06:15.497Z,3.725
2019-05-11T21:09:15.545Z,3.275
2019-05-11T21:12:18.514Z,2.838
2019-05-11T21:15:23.751Z,2.588
2019-05-11T21:18:15.422Z,2.475
2019-05-11T21:21:15.554Z,3.613
2019-05-11T21:24:15.944Z,3.325
2019-05-11T21:27:15.496Z,2.325
2019-05-11T21:30:15.211Z,3.362
2019-05-11T21:33:15.075Z,3.000
2019-05-11T21:36:17.909Z,2.787
2019-05-11T21:39:15.049Z,2.200
2019-05-11T21:42:18.025Z,3.588
2019-05-11T21:45:17.840Z,2.750
2019-05-11T21:48:16.209Z,5.050
2019-05-11T21:51:21.023Z,4.725
2019-05-11T21:54:15.388Z,2.812
2019-05-11T21:57:18.197Z,3.812
2019-05-11T22:00:15.870Z,4.475
2019-05-11T22:03:22.224Z,10.787
2019-05-11T22:06:31.165Z,6.825
2019-05-11T22:09:15.090Z,3.450
2019-05-11T22:12:15.767Z,4.550
2019-05-11T22:15:17.203Z,3.313
2019-05-11T22:18:28.250Z,5.062
2019-05-11T22:21:16.017Z,4.225
2019-05-11T22:24:18.498Z,4.812
2019-05-11T22:27:18.376Z,2.150
2019-05-11T22:30:15.480Z,4.150
2019-05-11T22:33:17.602Z,3.150
2019-05-11T22:36:16.468Z,2.938
2019-05-11T22:39:18.581Z,2.463
2019-05-11T22:42:18.395Z,3.163
2019-05-11T22:45:15.880Z,2.888
2019-05-11T22:48:15.115Z,4.125
2019-05-11T22:51:15.415Z,2.263
2019-05-11T22:54:15.130Z,3.475
2019-05-11T22:57:15.670Z,6.950
2019-05-11T23:00:15.576Z,3.175
2019-05-11T23:03:15.384Z,6.013
2019-05-11T23:06:15.444Z,4.675
2019-05-11T23:09:18.271Z,2.825
2019-05-11T23:12:15.328Z,4.650
2019-05-11T23:15:15.990Z,3.212
2019-05-11T23:18:17.978Z,2.538
2019-05-11T23:21:15.787Z,3.337
2019-05-11T23:24:18.004Z,5.588
2019-05-11T23:27:15.494Z,3.788
2019-05-11T23:30:15.471Z,4.525
2019-05-11T23:33:15.762Z,4.963
2019-05-11T23:36:18.136Z,2.525
2019-05-11T23:39:17.717Z,4.237
2019-05-11T23:42:15.818Z,2.837
2019-05-11T23:45:15.734Z,2.138
2019-05-11T23:48:17.136Z,5.637
2019-05-11T23:51:17.971Z,3.525
2019-05-11T23:54:15.110Z,4.488
2019-05-11T23:57:15.376Z,4.150
